sensor_id;sensor_type;location;lat;lon;timestamp;P1;durP1;ratioP1;P2;durP2;ratioP2
67902;SDS011;54708;43.612;1.568;2022-12-07T00:00:55;31.65;;;20.63;;
67902;SDS011;54708;43.612;1.568;2022-12-07T00:03:29;27.13;;;16.95;;
67902;SDS011;54708;43.612;1.568;2022-12-07T00:05:57;22.88;;;15.60;;
67902;SDS011;54708;43.612;1.568;2022-12-07T00:08:23;22.40;;;14.45;;
67902;SDS011;54708;43.612;1.568;2022-12-07T00:10:48;22.67;;;14.70;;
67902;SDS011;54708;43.612;1.568;2022-12-07T00:13:15;21.13;;;15.90;;
67902;SDS011;54708;43.612;1.568;2022-12-07T00:15:40;21.15;;;13.38;;
67902;SDS011;54708;43.612;1.568;2022-12-07T00:18:06;25.98;;;17.10;;
67902;SDS011;54708;43.612;1.568;2022-12-07T00:20:31;24.85;;;16.80;;
67902;SDS011;54708;43.612;1.568;2022-12-07T00:22:58;22.40;;;15.35;;
67902;SDS011;54708;43.612;1.568;2022-12-07T00:25:23;24.70;;;16.08;;
67902;SDS011;54708;43.612;1.568;2022-12-07T00:27:49;23.85;;;14.85;;
67902;SDS011;54708;43.612;1.568;2022-12-07T00:30:14;31.05;;;19.20;;
67902;SDS011;54708;43.612;1.568;2022-12-07T00:32:40;43.17;;;20.38;;
67902;SDS011;54708;43.612;1.568;2022-12-07T00:35:05;33.90;;;20.13;;
67902;SDS011;54708;43.612;1.568;2022-12-07T00:37:31;37.60;;;22.33;;
67902;SDS011;54708;43.612;1.568;2022-12-07T00:39:56;41.75;;;24.13;;
67902;SDS011;54708;43.612;1.568;2022-12-07T00:42:21;34.80;;;20.98;;
67902;SDS011;54708;43.612;1.568;2022-12-07T00:44:47;39.50;;;23.75;;
67902;SDS011;54708;43.612;1.568;2022-12-07T00:47:12;52.20;;;23.35;;
67902;SDS011;54708;43.612;1.568;2022-12-07T00:49:38;46.15;;;24.55;;
67902;SDS011;54708;43.612;1.568;2022-12-07T00:52:03;47.65;;;24.08;;
67902;SDS011;54708;43.612;1.568;2022-12-07T00:54:28;42.88;;;24.00;;
67902;SDS011;54708;43.612;1.568;2022-12-07T00:56:54;38.13;;;23.38;;
67902;SDS011;54708;43.612;1.568;2022-12-07T00:59:19;37.33;;;22.90;;
67902;SDS011;54708;43.612;1.568;2022-12-07T01:01:45;34.00;;;20.05;;
67902;SDS011;54708;43.612;1.568;2022-12-07T01:04:10;30.25;;;18.55;;
67902;SDS011;54708;43.612;1.568;2022-12-07T01:06:35;31.98;;;20.20;;
67902;SDS011;54708;43.612;1.568;2022-12-07T01:09:01;29.67;;;18.58;;
67902;SDS011;54708;43.612;1.568;2022-12-07T01:11:27;29.58;;;18.92;;
67902;SDS011;54708;43.612;1.568;2022-12-07T01:13:55;26.42;;;17.08;;
67902;SDS011;54708;43.612;1.568;2022-12-07T01:16:22;27.52;;;17.15;;
67902;SDS011;54708;43.612;1.568;2022-12-07T01:18:49;26.13;;;18.27;;
67902;SDS011;54708;43.612;1.568;2022-12-07T01:21:16;26.67;;;16.85;;
67902;SDS011;54708;43.612;1.568;2022-12-07T01:23:50;26.70;;;17.27;;
67902;SDS011;54708;43.612;1.568;2022-12-07T01:26:17;29.65;;;18.25;;
67902;SDS011;54708;43.612;1.568;2022-12-07T01:28:45;28.13;;;18.10;;
67902;SDS011;54708;43.612;1.568;2022-12-07T01:31:15;25.35;;;17.20;;
67902;SDS011;54708;43.612;1.568;2022-12-07T01:33:43;30.30;;;19.55;;
67902;SDS011;54708;43.612;1.568;2022-12-07T01:38:39;31.38;;;19.63;;
67902;SDS011;54708;43.612;1.568;2022-12-07T01:41:05;28.90;;;19.10;;
67902;SDS011;54708;43.612;1.568;2022-12-07T01:43:31;25.50;;;17.60;;
67902;SDS011;54708;43.612;1.568;2022-12-07T01:45:57;29.23;;;18.83;;
67902;SDS011;54708;43.612;1.568;2022-12-07T01:48:34;35.53;;;20.80;;
67902;SDS011;54708;43.612;1.568;2022-12-07T01:51:11;27.55;;;17.30;;
67902;SDS011;54708;43.612;1.568;2022-12-07T01:53:40;29.92;;;18.25;;
67902;SDS011;54708;43.612;1.568;2022-12-07T01:56:08;31.77;;;18.80;;
67902;SDS011;54708;43.612;1.568;2022-12-07T01:58:36;31.38;;;18.92;;
67902;SDS011;54708;43.612;1.568;2022-12-07T02:01:02;25.27;;;17.55;;
67902;SDS011;54708;43.612;1.568;2022-12-07T02:03:32;30.90;;;19.45;;
67902;SDS011;54708;43.612;1.568;2022-12-07T02:08:26;29.23;;;18.48;;
67902;SDS011;54708;43.612;1.568;2022-12-07T02:10:52;30.75;;;18.65;;
67902;SDS011;54708;43.612;1.568;2022-12-07T02:13:24;28.70;;;18.50;;
67902;SDS011;54708;43.612;1.568;2022-12-07T02:16:00;26.95;;;19.67;;
67902;SDS011;54708;43.612;1.568;2022-12-07T02:21:47;29.00;;;17.98;;
67902;SDS011;54708;43.612;1.568;2022-12-07T02:27:10;23.55;;;16.25;;
67902;SDS011;54708;43.612;1.568;2022-12-07T02:30:06;24.40;;;17.27;;
67902;SDS011;54708;43.612;1.568;2022-12-07T02:35:30;26.52;;;17.00;;
67902;SDS011;54708;43.612;1.568;2022-12-07T02:43:43;25.65;;;16.52;;
67902;SDS011;54708;43.612;1.568;2022-12-07T02:46:13;22.77;;;15.77;;
67902;SDS011;54708;43.612;1.568;2022-12-07T02:48:39;25.63;;;16.90;;
67902;SDS011;54708;43.612;1.568;2022-12-07T02:51:06;28.08;;;17.30;;
67902;SDS011;54708;43.612;1.568;2022-12-07T02:53:32;27.83;;;17.02;;
67902;SDS011;54708;43.612;1.568;2022-12-07T03:01:57;24.23;;;17.40;;
67902;SDS011;54708;43.612;1.568;2022-12-07T03:07:56;28.75;;;18.23;;
67902;SDS011;54708;43.612;1.568;2022-12-07T03:10:40;23.73;;;15.77;;
67902;SDS011;54708;43.612;1.568;2022-12-07T03:16:05;28.58;;;17.83;;
67902;SDS011;54708;43.612;1.568;2022-12-07T03:18:41;23.30;;;16.85;;
67902;SDS011;54708;43.612;1.568;2022-12-07T03:21:14;22.70;;;17.02;;
67902;SDS011;54708;43.612;1.568;2022-12-07T03:23:43;28.10;;;18.33;;
67902;SDS011;54708;43.612;1.568;2022-12-07T03:26:13;31.13;;;18.48;;
67902;SDS011;54708;43.612;1.568;2022-12-07T03:28:42;27.33;;;17.95;;
67902;SDS011;54708;43.612;1.568;2022-12-07T03:31:17;40.85;;;26.05;;
67902;SDS011;54708;43.612;1.568;2022-12-07T03:33:56;38.65;;;24.50;;
67902;SDS011;54708;43.612;1.568;2022-12-07T03:39:02;37.80;;;22.92;;
67902;SDS011;54708;43.612;1.568;2022-12-07T03:41:31;37.22;;;22.10;;
67902;SDS011;54708;43.612;1.568;2022-12-07T03:43:57;30.50;;;20.38;;
67902;SDS011;54708;43.612;1.568;2022-12-07T03:54:56;28.70;;;18.97;;
67902;SDS011;54708;43.612;1.568;2022-12-07T03:57:23;27.50;;;18.05;;
67902;SDS011;54708;43.612;1.568;2022-12-07T03:59:49;26.30;;;18.30;;
67902;SDS011;54708;43.612;1.568;2022-12-07T04:02:16;26.23;;;17.98;;
67902;SDS011;54708;43.612;1.568;2022-12-07T04:04:42;24.95;;;18.77;;
67902;SDS011;54708;43.612;1.568;2022-12-07T04:07:08;22.85;;;16.20;;
67902;SDS011;54708;43.612;1.568;2022-12-07T04:09:34;26.73;;;16.80;;
67902;SDS011;54708;43.612;1.568;2022-12-07T04:11:59;26.10;;;16.33;;
67902;SDS011;54708;43.612;1.568;2022-12-07T04:14:24;26.02;;;16.48;;
67902;SDS011;54708;43.612;1.568;2022-12-07T04:16:51;24.58;;;16.42;;
67902;SDS011;54708;43.612;1.568;2022-12-07T04:19:18;27.75;;;16.95;;
67902;SDS011;54708;43.612;1.568;2022-12-07T04:21:46;25.10;;;16.83;;
67902;SDS011;54708;43.612;1.568;2022-12-07T04:24:12;26.17;;;16.27;;
67902;SDS011;54708;43.612;1.568;2022-12-07T04:26:39;25.52;;;17.33;;
67902;SDS011;54708;43.612;1.568;2022-12-07T04:29:05;38.17;;;20.80;;
67902;SDS011;54708;43.612;1.568;2022-12-07T04:31:30;35.53;;;24.08;;
67902;SDS011;54708;43.612;1.568;2022-12-07T04:33:56;37.53;;;24.38;;
67902;SDS011;54708;43.612;1.568;2022-12-07T04:36:21;34.80;;;22.85;;
67902;SDS011;54708;43.612;1.568;2022-12-07T04:38:46;38.42;;;25.33;;
67902;SDS011;54708;43.612;1.568;2022-12-07T04:41:12;35.60;;;24.98;;
67902;SDS011;54708;43.612;1.568;2022-12-07T04:43:38;39.03;;;25.55;;
67902;SDS011;54708;43.612;1.568;2022-12-07T04:46:03;44.33;;;27.77;;
67902;SDS011;54708;43.612;1.568;2022-12-07T04:48:29;37.25;;;25.92;;
67902;SDS011;54708;43.612;1.568;2022-12-07T04:50:54;40.38;;;26.40;;
67902;SDS011;54708;43.612;1.568;2022-12-07T04:53:20;39.22;;;26.27;;
67902;SDS011;54708;43.612;1.568;2022-12-07T04:55:46;35.45;;;24.83;;
67902;SDS011;54708;43.612;1.568;2022-12-07T04:58:11;37.97;;;25.67;;
67902;SDS011;54708;43.612;1.568;2022-12-07T05:00:37;38.42;;;25.63;;
67902;SDS011;54708;43.612;1.568;2022-12-07T05:03:03;41.20;;;28.40;;
67902;SDS011;54708;43.612;1.568;2022-12-07T05:05:28;44.05;;;27.73;;
67902;SDS011;54708;43.612;1.568;2022-12-07T05:07:53;42.65;;;27.88;;
67902;SDS011;54708;43.612;1.568;2022-12-07T05:10:19;42.95;;;26.38;;
67902;SDS011;54708;43.612;1.568;2022-12-07T05:12:44;36.13;;;25.88;;
67902;SDS011;54708;43.612;1.568;2022-12-07T05:15:10;43.80;;;26.92;;
67902;SDS011;54708;43.612;1.568;2022-12-07T05:17:36;42.28;;;27.83;;
67902;SDS011;54708;43.612;1.568;2022-12-07T05:20:02;45.30;;;28.05;;
67902;SDS011;54708;43.612;1.568;2022-12-07T05:22:28;41.63;;;27.50;;
67902;SDS011;54708;43.612;1.568;2022-12-07T05:24:54;60.05;;;40.80;;
67902;SDS011;54708;43.612;1.568;2022-12-07T05:27:20;51.17;;;32.40;;
67902;SDS011;54708;43.612;1.568;2022-12-07T05:29:45;46.30;;;31.45;;
67902;SDS011;54708;43.612;1.568;2022-12-07T05:32:11;43.38;;;28.63;;
67902;SDS011;54708;43.612;1.568;2022-12-07T05:34:36;44.58;;;29.15;;
67902;SDS011;54708;43.612;1.568;2022-12-07T05:37:02;41.03;;;27.35;;
67902;SDS011;54708;43.612;1.568;2022-12-07T05:39:27;43.03;;;27.85;;
67902;SDS011;54708;43.612;1.568;2022-12-07T05:41:52;40.35;;;27.67;;
67902;SDS011;54708;43.612;1.568;2022-12-07T05:44:36;42.58;;;26.88;;
67902;SDS011;54708;43.612;1.568;2022-12-07T05:47:02;38.67;;;26.98;;
67902;SDS011;54708;43.612;1.568;2022-12-07T05:49:27;37.90;;;25.80;;
67902;SDS011;54708;43.612;1.568;2022-12-07T05:51:52;45.92;;;24.98;;
67902;SDS011;54708;43.612;1.568;2022-12-07T05:54:18;39.90;;;26.58;;
67902;SDS011;54708;43.612;1.568;2022-12-07T05:56:43;37.67;;;25.58;;
67902;SDS011;54708;43.612;1.568;2022-12-07T05:59:09;36.50;;;25.02;;
67902;SDS011;54708;43.612;1.568;2022-12-07T06:01:55;38.08;;;25.15;;
67902;SDS011;54708;43.612;1.568;2022-12-07T06:04:23;40.92;;;27.30;;
67902;SDS011;54708;43.612;1.568;2022-12-07T06:06:49;38.80;;;25.42;;
67902;SDS011;54708;43.612;1.568;2022-12-07T06:09:15;39.20;;;25.92;;
67902;SDS011;54708;43.612;1.568;2022-12-07T06:11:41;44.70;;;28.52;;
67902;SDS011;54708;43.612;1.568;2022-12-07T06:14:25;37.75;;;24.98;;
67902;SDS011;54708;43.612;1.568;2022-12-07T06:16:51;40.30;;;27.42;;
67902;SDS011;54708;43.612;1.568;2022-12-07T06:19:16;43.00;;;27.52;;
67902;SDS011;54708;43.612;1.568;2022-12-07T06:21:42;31.35;;;23.80;;
67902;SDS011;54708;43.612;1.568;2022-12-07T06:24:09;37.58;;;26.60;;
67902;SDS011;54708;43.612;1.568;2022-12-07T06:26:36;42.78;;;28.73;;
67902;SDS011;54708;43.612;1.568;2022-12-07T06:29:02;38.40;;;26.13;;
67902;SDS011;54708;43.612;1.568;2022-12-07T06:31:28;41.38;;;28.80;;
67902;SDS011;54708;43.612;1.568;2022-12-07T06:33:57;43.25;;;26.85;;
67902;SDS011;54708;43.612;1.568;2022-12-07T06:36:23;40.97;;;27.58;;
67902;SDS011;54708;43.612;1.568;2022-12-07T06:38:49;38.38;;;25.75;;
67902;SDS011;54708;43.612;1.568;2022-12-07T06:41:14;38.20;;;26.52;;
67902;SDS011;54708;43.612;1.568;2022-12-07T06:43:39;38.33;;;25.05;;
67902;SDS011;54708;43.612;1.568;2022-12-07T06:46:05;37.70;;;24.55;;
67902;SDS011;54708;43.612;1.568;2022-12-07T06:48:30;38.13;;;26.13;;
67902;SDS011;54708;43.612;1.568;2022-12-07T06:50:56;48.38;;;27.70;;
67902;SDS011;54708;43.612;1.568;2022-12-07T06:53:22;42.92;;;26.52;;
67902;SDS011;54708;43.612;1.568;2022-12-07T06:55:47;44.13;;;27.70;;
67902;SDS011;54708;43.612;1.568;2022-12-07T06:58:13;41.22;;;27.67;;
67902;SDS011;54708;43.612;1.568;2022-12-07T07:00:38;39.90;;;25.70;;
67902;SDS011;54708;43.612;1.568;2022-12-07T07:03:03;40.42;;;28.55;;
67902;SDS011;54708;43.612;1.568;2022-12-07T07:05:29;40.38;;;28.80;;
67902;SDS011;54708;43.612;1.568;2022-12-07T07:07:54;48.85;;;30.52;;
67902;SDS011;54708;43.612;1.568;2022-12-07T07:10:20;50.92;;;31.80;;
67902;SDS011;54708;43.612;1.568;2022-12-07T07:12:45;64.97;;;35.78;;
67902;SDS011;54708;43.612;1.568;2022-12-07T07:15:10;62.55;;;35.88;;
67902;SDS011;54708;43.612;1.568;2022-12-07T07:17:36;58.50;;;37.83;;
67902;SDS011;54708;43.612;1.568;2022-12-07T07:20:02;67.22;;;39.88;;
67902;SDS011;54708;43.612;1.568;2022-12-07T07:22:28;64.60;;;41.65;;
67902;SDS011;54708;43.612;1.568;2022-12-07T07:24:53;61.08;;;37.97;;
67902;SDS011;54708;43.612;1.568;2022-12-07T07:27:18;63.30;;;39.45;;
67902;SDS011;54708;43.612;1.568;2022-12-07T07:29:44;60.00;;;35.97;;
67902;SDS011;54708;43.612;1.568;2022-12-07T07:32:09;63.53;;;40.22;;
67902;SDS011;54708;43.612;1.568;2022-12-07T07:34:35;74.55;;;46.28;;
67902;SDS011;54708;43.612;1.568;2022-12-07T07:37:00;80.07;;;46.75;;
67902;SDS011;54708;43.612;1.568;2022-12-07T07:39:26;74.97;;;43.47;;
67902;SDS011;54708;43.612;1.568;2022-12-07T07:41:51;68.90;;;41.30;;
67902;SDS011;54708;43.612;1.568;2022-12-07T07:44:16;68.80;;;41.30;;
67902;SDS011;54708;43.612;1.568;2022-12-07T07:46:42;65.10;;;41.10;;
67902;SDS011;54708;43.612;1.568;2022-12-07T07:49:09;64.97;;;39.92;;
67902;SDS011;54708;43.612;1.568;2022-12-07T07:51:35;61.63;;;39.35;;
67902;SDS011;54708;43.612;1.568;2022-12-07T07:54:01;61.33;;;38.55;;
67902;SDS011;54708;43.612;1.568;2022-12-07T07:56:26;60.42;;;39.08;;
67902;SDS011;54708;43.612;1.568;2022-12-07T07:58:52;61.65;;;36.70;;
67902;SDS011;54708;43.612;1.568;2022-12-07T08:01:17;58.15;;;35.53;;
67902;SDS011;54708;43.612;1.568;2022-12-07T08:03:44;59.75;;;37.92;;
67902;SDS011;54708;43.612;1.568;2022-12-07T08:06:11;65.65;;;39.53;;
67902;SDS011;54708;43.612;1.568;2022-12-07T08:08:36;59.20;;;37.42;;
67902;SDS011;54708;43.612;1.568;2022-12-07T08:11:04;48.58;;;31.45;;
67902;SDS011;54708;43.612;1.568;2022-12-07T08:13:30;53.13;;;34.33;;
67902;SDS011;54708;43.612;1.568;2022-12-07T08:15:56;56.40;;;34.72;;
67902;SDS011;54708;43.612;1.568;2022-12-07T08:18:21;50.90;;;33.60;;
67902;SDS011;54708;43.612;1.568;2022-12-07T08:20:47;46.63;;;30.13;;
67902;SDS011;54708;43.612;1.568;2022-12-07T08:23:12;48.78;;;31.77;;
67902;SDS011;54708;43.612;1.568;2022-12-07T08:25:38;41.28;;;28.00;;
67902;SDS011;54708;43.612;1.568;2022-12-07T08:28:03;41.63;;;27.58;;
67902;SDS011;54708;43.612;1.568;2022-12-07T08:30:29;42.22;;;26.70;;
67902;SDS011;54708;43.612;1.568;2022-12-07T08:32:55;43.58;;;26.35;;
67902;SDS011;54708;43.612;1.568;2022-12-07T08:35:21;40.33;;;25.45;;
67902;SDS011;54708;43.612;1.568;2022-12-07T08:37:46;35.70;;;23.40;;
67902;SDS011;54708;43.612;1.568;2022-12-07T08:40:12;34.58;;;24.73;;
67902;SDS011;54708;43.612;1.568;2022-12-07T08:42:44;37.28;;;25.10;;
67902;SDS011;54708;43.612;1.568;2022-12-07T08:45:14;37.00;;;25.10;;
67902;SDS011;54708;43.612;1.568;2022-12-07T08:47:42;40.58;;;27.55;;
67902;SDS011;54708;43.612;1.568;2022-12-07T08:50:29;39.75;;;26.77;;
67902;SDS011;54708;43.612;1.568;2022-12-07T08:52:57;36.30;;;24.42;;
67902;SDS011;54708;43.612;1.568;2022-12-07T08:55:24;35.00;;;25.08;;
67902;SDS011;54708;43.612;1.568;2022-12-07T08:57:50;39.58;;;25.73;;
67902;SDS011;54708;43.612;1.568;2022-12-07T09:00:16;37.63;;;25.55;;
67902;SDS011;54708;43.612;1.568;2022-12-07T09:02:42;34.38;;;24.95;;
67902;SDS011;54708;43.612;1.568;2022-12-07T09:05:08;37.88;;;23.88;;
67902;SDS011;54708;43.612;1.568;2022-12-07T09:07:34;32.90;;;23.67;;
67902;SDS011;54708;43.612;1.568;2022-12-07T09:10:00;35.40;;;22.63;;
67902;SDS011;54708;43.612;1.568;2022-12-07T09:12:26;32.20;;;23.77;;
67902;SDS011;54708;43.612;1.568;2022-12-07T09:14:51;32.70;;;22.77;;
67902;SDS011;54708;43.612;1.568;2022-12-07T09:17:16;33.25;;;22.58;;
67902;SDS011;54708;43.612;1.568;2022-12-07T09:19:42;28.20;;;20.17;;
67902;SDS011;54708;43.612;1.568;2022-12-07T09:22:08;31.05;;;21.08;;
67902;SDS011;54708;43.612;1.568;2022-12-07T09:24:33;28.00;;;20.35;;
67902;SDS011;54708;43.612;1.568;2022-12-07T09:26:59;29.10;;;18.20;;
67902;SDS011;54708;43.612;1.568;2022-12-07T09:29:24;24.65;;;18.50;;
67902;SDS011;54708;43.612;1.568;2022-12-07T09:31:50;26.42;;;18.02;;
67902;SDS011;54708;43.612;1.568;2022-12-07T09:34:16;26.85;;;18.63;;
67902;SDS011;54708;43.612;1.568;2022-12-07T09:36:42;25.98;;;18.52;;
67902;SDS011;54708;43.612;1.568;2022-12-07T09:39:08;22.05;;;17.17;;
67902;SDS011;54708;43.612;1.568;2022-12-07T09:41:33;28.88;;;17.65;;
67902;SDS011;54708;43.612;1.568;2022-12-07T09:44:05;22.42;;;15.93;;
67902;SDS011;54708;43.612;1.568;2022-12-07T09:46:42;22.88;;;15.00;;
67902;SDS011;54708;43.612;1.568;2022-12-07T09:49:16;15.98;;;13.38;;
67902;SDS011;54708;43.612;1.568;2022-12-07T09:51:43;16.70;;;12.93;;
67902;SDS011;54708;43.612;1.568;2022-12-07T09:54:11;15.52;;;12.48;;
67902;SDS011;54708;43.612;1.568;2022-12-07T09:56:38;15.80;;;12.65;;
67902;SDS011;54708;43.612;1.568;2022-12-07T09:59:04;16.92;;;11.90;;
67902;SDS011;54708;43.612;1.568;2022-12-07T10:01:30;15.88;;;12.57;;
67902;SDS011;54708;43.612;1.568;2022-12-07T10:06:37;18.33;;;13.20;;
67902;SDS011;54708;43.612;1.568;2022-12-07T10:09:08;16.45;;;12.07;;
67902;SDS011;54708;43.612;1.568;2022-12-07T10:14:35;10.07;;;9.10;;
67902;SDS011;54708;43.612;1.568;2022-12-07T10:17:02;11.40;;;10.20;;
67902;SDS011;54708;43.612;1.568;2022-12-07T10:19:29;10.27;;;9.05;;
67902;SDS011;54708;43.612;1.568;2022-12-07T10:21:59;10.30;;;9.18;;
67902;SDS011;54708;43.612;1.568;2022-12-07T10:24:32;11.82;;;10.23;;
67902;SDS011;54708;43.612;1.568;2022-12-07T10:26:57;10.48;;;9.20;;
67902;SDS011;54708;43.612;1.568;2022-12-07T10:29:28;11.20;;;10.02;;
67902;SDS011;54708;43.612;1.568;2022-12-07T10:31:56;13.30;;;10.57;;
67902;SDS011;54708;43.612;1.568;2022-12-07T10:37:13;12.70;;;10.55;;
67902;SDS011;54708;43.612;1.568;2022-12-07T10:39:49;12.20;;;10.83;;
67902;SDS011;54708;43.612;1.568;2022-12-07T10:42:23;11.27;;;9.82;;
67902;SDS011;54708;43.612;1.568;2022-12-07T10:44:50;8.18;;;7.38;;
67902;SDS011;54708;43.612;1.568;2022-12-07T10:47:33;6.10;;;5.50;;
67902;SDS011;54708;43.612;1.568;2022-12-07T10:50:14;7.15;;;6.13;;
67902;SDS011;54708;43.612;1.568;2022-12-07T11:00:51;11.05;;;8.80;;
67902;SDS011;54708;43.612;1.568;2022-12-07T11:06:02;9.43;;;8.00;;
67902;SDS011;54708;43.612;1.568;2022-12-07T11:14:03;12.18;;;9.23;;
67902;SDS011;54708;43.612;1.568;2022-12-07T11:24:35;14.75;;;10.45;;
67902;SDS011;54708;43.612;1.568;2022-12-07T11:35:30;11.65;;;8.45;;
67902;SDS011;54708;43.612;1.568;2022-12-07T11:38:01;11.95;;;8.70;;
67902;SDS011;54708;43.612;1.568;2022-12-07T11:40:49;13.13;;;9.30;;
67902;SDS011;54708;43.612;1.568;2022-12-07T11:45:59;12.95;;;8.90;;
67902;SDS011;54708;43.612;1.568;2022-12-07T11:48:40;12.55;;;9.82;;
67902;SDS011;54708;43.612;1.568;2022-12-07T11:51:12;11.50;;;8.70;;
67902;SDS011;54708;43.612;1.568;2022-12-07T11:56:15;12.38;;;9.68;;
67902;SDS011;54708;43.612;1.568;2022-12-07T11:58:54;12.60;;;10.02;;
67902;SDS011;54708;43.612;1.568;2022-12-07T12:06:54;11.30;;;8.43;;
67902;SDS011;54708;43.612;1.568;2022-12-07T12:09:43;9.60;;;7.75;;
67902;SDS011;54708;43.612;1.568;2022-12-07T12:14:46;9.60;;;6.75;;
67902;SDS011;54708;43.612;1.568;2022-12-07T12:25:51;9.55;;;6.30;;
67902;SDS011;54708;43.612;1.568;2022-12-07T12:33:51;7.68;;;6.53;;
67902;SDS011;54708;43.612;1.568;2022-12-07T12:36:25;10.18;;;7.45;;
67902;SDS011;54708;43.612;1.568;2022-12-07T12:39:16;8.77;;;6.05;;
67902;SDS011;54708;43.612;1.568;2022-12-07T12:51:45;9.85;;;6.25;;
67902;SDS011;54708;43.612;1.568;2022-12-07T12:54:18;9.27;;;6.22;;
67902;SDS011;54708;43.612;1.568;2022-12-07T12:56:51;8.15;;;5.82;;
67902;SDS011;54708;43.612;1.568;2022-12-07T12:59:30;9.20;;;6.40;;
67902;SDS011;54708;43.612;1.568;2022-12-07T13:04:59;7.63;;;5.38;;
67902;SDS011;54708;43.612;1.568;2022-12-07T13:15:42;10.07;;;7.05;;
67902;SDS011;54708;43.612;1.568;2022-12-07T13:21:00;9.38;;;6.45;;
67902;SDS011;54708;43.612;1.568;2022-12-07T13:25:59;10.52;;;6.18;;
67902;SDS011;54708;43.612;1.568;2022-12-07T13:28:32;8.85;;;7.15;;
67902;SDS011;54708;43.612;1.568;2022-12-07T13:31:04;10.25;;;6.63;;
67902;SDS011;54708;43.612;1.568;2022-12-07T13:33:35;11.32;;;6.35;;
67902;SDS011;54708;43.612;1.568;2022-12-07T13:36:00;9.00;;;6.90;;
67902;SDS011;54708;43.612;1.568;2022-12-07T13:43:51;10.20;;;7.57;;
67902;SDS011;54708;43.612;1.568;2022-12-07T13:49:24;9.38;;;6.45;;
67902;SDS011;54708;43.612;1.568;2022-12-07T13:51:51;16.33;;;8.88;;
67902;SDS011;54708;43.612;1.568;2022-12-07T13:54:17;9.77;;;6.65;;
67902;SDS011;54708;43.612;1.568;2022-12-07T13:56:43;10.05;;;6.90;;
67902;SDS011;54708;43.612;1.568;2022-12-07T13:59:13;10.80;;;7.00;;
67902;SDS011;54708;43.612;1.568;2022-12-07T14:01:41;10.98;;;8.00;;
67902;SDS011;54708;43.612;1.568;2022-12-07T14:06:54;8.43;;;7.28;;
67902;SDS011;54708;43.612;1.568;2022-12-07T14:09:21;15.27;;;8.82;;
67902;SDS011;54708;43.612;1.568;2022-12-07T14:11:48;36.13;;;10.98;;
67902;SDS011;54708;43.612;1.568;2022-12-07T14:14:18;15.00;;;7.63;;
67902;SDS011;54708;43.612;1.568;2022-12-07T14:16:56;58.50;;;15.07;;
67902;SDS011;54708;43.612;1.568;2022-12-07T14:22:19;56.08;;;12.13;;
67902;SDS011;54708;43.612;1.568;2022-12-07T14:24:47;8.82;;;6.22;;
67902;SDS011;54708;43.612;1.568;2022-12-07T14:27:19;82.05;;;14.95;;
67902;SDS011;54708;43.612;1.568;2022-12-07T14:29:47;17.83;;;8.18;;
67902;SDS011;54708;43.612;1.568;2022-12-07T14:32:20;32.55;;;9.68;;
67902;SDS011;54708;43.612;1.568;2022-12-07T14:35:15;18.02;;;6.55;;
67902;SDS011;54708;43.612;1.568;2022-12-07T14:37:40;7.40;;;5.55;;
67902;SDS011;54708;43.612;1.568;2022-12-07T14:40:07;9.80;;;6.07;;
67902;SDS011;54708;43.612;1.568;2022-12-07T14:42:37;6.90;;;5.57;;
67902;SDS011;54708;43.612;1.568;2022-12-07T14:45:03;9.95;;;5.57;;
67902;SDS011;54708;43.612;1.568;2022-12-07T14:47:28;6.60;;;5.90;;
67902;SDS011;54708;43.612;1.568;2022-12-07T14:49:54;8.20;;;5.82;;
67902;SDS011;54708;43.612;1.568;2022-12-07T14:52:21;7.32;;;5.68;;
67902;SDS011;54708;43.612;1.568;2022-12-07T14:54:48;7.03;;;5.57;;
67902;SDS011;54708;43.612;1.568;2022-12-07T14:57:14;7.25;;;6.20;;
67902;SDS011;54708;43.612;1.568;2022-12-07T14:59:39;7.72;;;6.00;;
67902;SDS011;54708;43.612;1.568;2022-12-07T15:02:05;7.60;;;6.13;;
67902;SDS011;54708;43.612;1.568;2022-12-07T15:04:31;7.93;;;6.20;;
67902;SDS011;54708;43.612;1.568;2022-12-07T15:06:58;9.95;;;6.38;;
67902;SDS011;54708;43.612;1.568;2022-12-07T15:09:24;9.82;;;6.25;;
67902;SDS011;54708;43.612;1.568;2022-12-07T15:11:50;10.77;;;7.13;;
67902;SDS011;54708;43.612;1.568;2022-12-07T15:14:15;12.52;;;6.78;;
67902;SDS011;54708;43.612;1.568;2022-12-07T15:16:41;8.55;;;6.18;;
67902;SDS011;54708;43.612;1.568;2022-12-07T15:19:14;6.85;;;6.18;;
67902;SDS011;54708;43.612;1.568;2022-12-07T15:21:41;11.63;;;6.00;;
67902;SDS011;54708;43.612;1.568;2022-12-07T15:24:08;8.30;;;6.10;;
67902;SDS011;54708;43.612;1.568;2022-12-07T15:26:35;10.95;;;6.32;;
67902;SDS011;54708;43.612;1.568;2022-12-07T15:29:00;7.05;;;6.30;;
67902;SDS011;54708;43.612;1.568;2022-12-07T15:31:26;8.73;;;6.50;;
67902;SDS011;54708;43.612;1.568;2022-12-07T15:33:51;10.82;;;7.15;;
67902;SDS011;54708;43.612;1.568;2022-12-07T15:36:21;7.65;;;5.97;;
67902;SDS011;54708;43.612;1.568;2022-12-07T15:38:48;7.90;;;5.95;;
67902;SDS011;54708;43.612;1.568;2022-12-07T15:41:13;12.02;;;7.70;;
67902;SDS011;54708;43.612;1.568;2022-12-07T15:43:39;9.75;;;6.85;;
67902;SDS011;54708;43.612;1.568;2022-12-07T15:46:22;9.70;;;7.07;;
67902;SDS011;54708;43.612;1.568;2022-12-07T15:48:48;8.48;;;6.53;;
67902;SDS011;54708;43.612;1.568;2022-12-07T15:51:13;15.30;;;6.88;;
67902;SDS011;54708;43.612;1.568;2022-12-07T15:53:39;11.18;;;8.00;;
67902;SDS011;54708;43.612;1.568;2022-12-07T15:56:08;12.18;;;9.13;;
67902;SDS011;54708;43.612;1.568;2022-12-07T15:58:33;14.95;;;8.50;;
67902;SDS011;54708;43.612;1.568;2022-12-07T16:00:59;11.05;;;8.07;;
67902;SDS011;54708;43.612;1.568;2022-12-07T16:03:26;12.15;;;7.93;;
67902;SDS011;54708;43.612;1.568;2022-12-07T16:05:52;10.88;;;7.63;;
67902;SDS011;54708;43.612;1.568;2022-12-07T16:08:18;9.18;;;7.47;;
67902;SDS011;54708;43.612;1.568;2022-12-07T16:10:43;10.50;;;6.97;;
67902;SDS011;54708;43.612;1.568;2022-12-07T16:13:09;13.95;;;8.40;;
67902;SDS011;54708;43.612;1.568;2022-12-07T16:15:42;13.07;;;9.25;;
67902;SDS011;54708;43.612;1.568;2022-12-07T16:18:08;12.80;;;9.75;;
67902;SDS011;54708;43.612;1.568;2022-12-07T16:20:34;20.95;;;12.82;;
67902;SDS011;54708;43.612;1.568;2022-12-07T16:22:59;41.70;;;24.00;;
67902;SDS011;54708;43.612;1.568;2022-12-07T16:25:25;30.33;;;16.50;;
67902;SDS011;54708;43.612;1.568;2022-12-07T16:27:51;17.15;;;11.80;;
67902;SDS011;54708;43.612;1.568;2022-12-07T16:30:17;19.15;;;12.93;;
67902;SDS011;54708;43.612;1.568;2022-12-07T16:32:42;18.45;;;11.27;;
67902;SDS011;54708;43.612;1.568;2022-12-07T16:35:08;15.95;;;10.82;;
67902;SDS011;54708;43.612;1.568;2022-12-07T16:37:34;20.40;;;13.63;;
67902;SDS011;54708;43.612;1.568;2022-12-07T16:40:00;34.65;;;23.33;;
67902;SDS011;54708;43.612;1.568;2022-12-07T16:42:25;67.22;;;39.22;;
67902;SDS011;54708;43.612;1.568;2022-12-07T16:44:53;84.35;;;49.47;;
67902;SDS011;54708;43.612;1.568;2022-12-07T16:47:19;89.65;;;51.20;;
67902;SDS011;54708;43.612;1.568;2022-12-07T16:49:44;73.70;;;46.53;;
67902;SDS011;54708;43.612;1.568;2022-12-07T16:52:10;72.32;;;42.55;;
67902;SDS011;54708;43.612;1.568;2022-12-07T16:54:35;56.83;;;35.67;;
67902;SDS011;54708;43.612;1.568;2022-12-07T16:57:01;50.20;;;31.50;;
67902;SDS011;54708;43.612;1.568;2022-12-07T16:59:26;35.60;;;24.33;;
67902;SDS011;54708;43.612;1.568;2022-12-07T17:01:51;37.20;;;21.25;;